createdAt,value
2022-11-01T00:00:06.400Z,9.82
2022-11-01T00:02:54.601Z,9.83
2022-11-01T00:05:22.821Z,9.84
2022-11-01T00:07:54.065Z,9.83
2022-11-01T00:10:22.425Z,9.81
2022-11-01T00:12:50.703Z,9.79
2022-11-01T00:15:18.986Z,9.78
2022-11-01T00:17:47.268Z,9.76
2022-11-01T00:20:15.717Z,9.75
2022-11-01T00:22:43.962Z,9.74
2022-11-01T00:25:12.242Z,9.74
2022-11-01T00:27:40.510Z,9.74
2022-11-01T00:30:09.165Z,9.74
2022-11-01T00:32:37.590Z,9.73
2022-11-01T00:35:06.144Z,9.71
2022-11-01T00:37:34.610Z,9.70
2022-11-01T00:40:02.852Z,9.69
2022-11-01T00:42:31.122Z,9.68
2022-11-01T00:44:59.845Z,9.68
2022-11-01T00:47:28.064Z,9.69
2022-11-01T00:49:56.284Z,9.69
2022-11-01T00:52:24.521Z,9.70
2022-11-01T00:54:52.845Z,9.69
2022-11-01T00:57:21.117Z,9.68
2022-11-01T00:59:49.410Z,9.68
2022-11-01T01:02:17.924Z,9.69
2022-11-01T01:04:46.318Z,9.70
2022-11-01T01:07:14.675Z,9.71
2022-11-01T01:09:43.249Z,9.73
2022-11-01T01:12:11.765Z,9.74
2022-11-01T01:14:40.145Z,9.75
2022-11-01T01:17:08.507Z,9.77
2022-11-01T01:19:36.720Z,9.78
2022-11-01T01:22:04.987Z,9.78
2022-11-01T01:24:33.872Z,9.79
2022-11-01T01:27:03.486Z,9.82
2022-11-01T01:29:31.719Z,9.83
2022-11-01T01:31:59.919Z,9.85
2022-11-01T01:34:28.184Z,9.87
2022-11-01T01:36:56.483Z,9.88
2022-11-01T01:39:24.719Z,9.89
2022-11-01T01:41:55.748Z,9.90
2022-11-01T01:44:52.150Z,9.91
2022-11-01T01:47:27.544Z,9.91
2022-11-01T01:50:02.784Z,9.89
2022-11-01T01:52:37.973Z,9.89
2022-11-01T01:55:10.097Z,9.88
2022-11-01T01:57:40.612Z,9.87
2022-11-01T02:00:09.762Z,9.88
2022-11-01T02:02:41.638Z,9.86
2022-11-01T02:05:29.000Z,9.84
2022-11-01T02:07:58.530Z,9.81
2022-11-01T02:10:30.090Z,9.78
2022-11-01T02:12:58.541Z,9.74
2022-11-01T02:15:40.424Z,9.72
2022-11-01T02:18:33.056Z,9.68
2022-11-01T02:21:39.146Z,9.62
2022-11-01T02:24:47.273Z,9.55
2022-11-01T02:27:50.836Z,9.48
2022-11-01T02:30:21.236Z,9.40
2022-11-01T02:33:18.894Z,9.36
2022-11-01T02:36:05.960Z,9.32
2022-11-01T02:38:52.552Z,9.27
2022-11-01T02:41:32.867Z,9.21
2022-11-01T02:44:09.826Z,9.16
2022-11-01T02:46:59.531Z,9.12
2022-11-01T02:50:08.100Z,9.06
2022-11-01T02:52:40.514Z,8.99
2022-11-01T02:55:30.621Z,8.96
2022-11-01T02:58:04.489Z,8.93
2022-11-01T03:00:36.320Z,8.90
2022-11-01T03:03:16.734Z,8.86
2022-11-01T03:06:04.253Z,8.83
2022-11-01T03:08:44.361Z,8.78
2022-11-01T03:11:18.593Z,8.75
2022-11-01T03:14:26.972Z,8.73
2022-11-01T03:17:23.221Z,8.70
2022-11-01T03:20:59.334Z,8.69
2022-11-01T03:23:38.049Z,8.68
2022-11-01T03:26:12.065Z,8.68
2022-11-01T03:28:44.788Z,8.70
2022-11-01T03:31:22.992Z,8.71
2022-11-01T03:33:56.520Z,8.72
2022-11-01T03:36:32.394Z,8.72
2022-11-01T03:39:11.423Z,8.71
2022-11-01T03:41:45.307Z,8.70
2022-11-01T03:44:14.404Z,8.70
2022-11-01T03:46:43.163Z,8.68
2022-11-01T03:49:20.057Z,8.67
2022-11-01T03:51:48.622Z,8.67
2022-11-01T03:54:16.847Z,8.66
2022-11-01T03:56:45.182Z,8.64
2022-11-01T03:59:13.401Z,8.61
2022-11-01T04:01:41.842Z,8.59
2022-11-01T04:04:10.348Z,8.58
2022-11-01T04:06:38.688Z,8.54
2022-11-01T04:09:07.293Z,8.53
2022-11-01T04:11:35.719Z,8.51
2022-11-01T04:14:36.186Z,8.49
2022-11-01T04:17:22.693Z,8.47
2022-11-01T04:20:09.438Z,8.46
2022-11-01T04:22:39.385Z,8.45
2022-11-01T04:25:08.055Z,8.46
2022-11-01T04:27:36.251Z,8.47
2022-11-01T04:30:04.962Z,8.48
2022-11-01T04:32:33.195Z,8.49
2022-11-01T04:35:01.521Z,8.50
2022-11-01T04:37:31.584Z,8.50
2022-11-01T04:39:59.818Z,8.50
2022-11-01T04:42:28.045Z,8.50
2022-11-01T04:44:56.257Z,8.49
2022-11-01T04:47:24.469Z,8.47
2022-11-01T04:49:52.734Z,8.45
2022-11-01T04:52:21.262Z,8.44
2022-11-01T04:54:49.583Z,8.43
2022-11-01T04:57:24.334Z,8.42
2022-11-01T04:59:54.388Z,8.43
2022-11-01T05:02:24.398Z,8.43
2022-11-01T05:04:52.694Z,8.44
2022-11-01T05:07:20.967Z,8.44
2022-11-01T05:09:49.270Z,8.43
2022-11-01T05:12:19.210Z,8.41
2022-11-01T05:14:47.430Z,8.40
2022-11-01T05:17:15.861Z,8.38
2022-11-01T05:19:44.069Z,8.37
2022-11-01T05:22:12.329Z,8.35
2022-11-01T05:24:43.610Z,8.33
2022-11-01T05:27:11.867Z,8.33
2022-11-01T05:29:40.116Z,8.30
2022-11-01T05:32:08.335Z,8.28
2022-11-01T05:34:36.593Z,8.26
2022-11-01T05:37:04.816Z,8.25
2022-11-01T05:39:33.222Z,8.23
2022-11-01T05:42:02.976Z,8.22
2022-11-01T05:44:31.461Z,8.22
2022-11-01T05:47:03.301Z,8.21
2022-11-01T05:49:32.439Z,8.20
2022-11-01T05:52:00.968Z,8.20
2022-11-01T05:54:29.709Z,8.21
2022-11-01T05:56:58.030Z,8.24
2022-11-01T05:59:26.298Z,8.23
2022-11-01T06:01:55.022Z,8.24
2022-11-01T06:04:25.548Z,8.24
2022-11-01T06:06:54.474Z,8.25
2022-11-01T06:09:23.315Z,8.26
2022-11-01T06:11:53.110Z,8.28
2022-11-01T06:14:28.202Z,8.31
2022-11-01T06:16:57.565Z,8.33
2022-11-01T06:19:26.493Z,8.35
2022-11-01T06:21:55.049Z,8.37
2022-11-01T06:24:23.388Z,8.39
2022-11-01T06:26:51.751Z,8.42
2022-11-01T06:29:20.473Z,8.46
2022-11-01T06:31:48.805Z,8.50
2022-11-01T06:34:17.152Z,8.54
2022-11-01T06:36:45.439Z,8.58
2022-11-01T06:39:13.718Z,8.63
2022-11-01T06:41:42.246Z,8.67
2022-11-01T06:44:10.628Z,8.70
2022-11-01T06:46:39.038Z,8.73
2022-11-01T06:49:07.455Z,8.76
2022-11-01T06:51:35.853Z,8.81
2022-11-01T06:54:04.266Z,8.86
2022-11-01T06:56:33.106Z,8.92
2022-11-01T06:59:01.662Z,8.98
2022-11-01T07:01:30.136Z,9.05
2022-11-01T07:04:01.642Z,9.12
2022-11-01T07:06:31.094Z,9.19
2022-11-01T07:09:00.399Z,9.26
2022-11-01T07:11:31.428Z,9.35
2022-11-01T07:14:00.305Z,9.42
2022-11-01T07:16:29.016Z,9.50
2022-11-01T07:18:57.444Z,9.57
2022-11-01T07:21:25.886Z,9.65
2022-11-01T07:23:54.328Z,9.71
2022-11-01T07:26:22.675Z,9.79
2022-11-01T07:28:50.886Z,9.85
2022-11-01T07:31:19.167Z,9.91
2022-11-01T07:33:47.420Z,9.98
2022-11-01T07:36:15.886Z,10.06
2022-11-01T07:38:44.111Z,10.14
2022-11-01T07:41:12.555Z,10.23
2022-11-01T07:43:40.888Z,10.33
2022-11-01T07:46:09.513Z,10.42
2022-11-01T07:48:37.765Z,10.53
2022-11-01T07:51:07.529Z,10.65
2022-11-01T07:53:35.979Z,10.76
2022-11-01T07:56:04.605Z,10.87
2022-11-01T07:58:33.715Z,10.98
2022-11-01T08:01:02.096Z,11.12
2022-11-01T08:03:31.038Z,11.28
2022-11-01T08:05:59.345Z,11.45
2022-11-01T08:08:27.584Z,11.63
2022-11-01T08:10:56.126Z,11.80
2022-11-01T08:13:25.276Z,11.96
2022-11-01T08:15:54.139Z,12.08
2022-11-01T08:18:24.383Z,12.21
2022-11-01T08:20:54.259Z,12.33
2022-11-01T08:23:24.999Z,12.45
2022-11-01T08:25:53.288Z,12.57
2022-11-01T08:28:22.913Z,12.77
2022-11-01T08:30:51.577Z,12.98
2022-11-01T08:33:20.211Z,13.08
2022-11-01T08:35:50.672Z,13.15
2022-11-01T08:38:19.652Z,13.25
2022-11-01T08:40:48.328Z,13.37
2022-11-01T08:43:17.733Z,13.49
2022-11-01T08:45:46.334Z,13.63
2022-11-01T08:48:14.589Z,13.75
2022-11-01T08:50:43.291Z,13.88
2022-11-01T08:53:14.295Z,13.99
2022-11-01T08:55:42.726Z,14.15
2022-11-01T08:58:11.364Z,14.32
2022-11-01T09:00:39.656Z,14.42
2022-11-01T09:03:07.953Z,14.51
2022-11-01T09:05:36.294Z,14.68
2022-11-01T09:08:05.263Z,14.89
2022-11-01T09:10:34.178Z,15.09
2022-11-01T09:13:02.844Z,15.32
2022-11-01T09:15:31.775Z,15.52
2022-11-01T09:18:06.132Z,15.78
2022-11-01T09:20:34.527Z,16.04
2022-11-01T09:23:03.258Z,16.31
2022-11-01T09:25:31.922Z,16.57
2022-11-01T09:28:00.590Z,16.82
2022-11-01T09:30:30.300Z,17.01
2022-11-01T09:32:58.523Z,17.01
2022-11-01T09:35:26.715Z,17.11
2022-11-01T09:37:59.560Z,17.33
2022-11-01T09:40:36.090Z,17.45
2022-11-01T09:43:08.388Z,17.63
2022-11-01T09:45:37.395Z,17.86
2022-11-01T09:48:07.412Z,18.01
2022-11-01T09:50:40.147Z,18.17
2022-11-01T09:53:17.731Z,18.39
2022-11-01T09:55:55.965Z,18.53
2022-11-01T09:59:07.469Z,18.63
2022-11-01T10:02:26.519Z,18.65
2022-11-01T10:05:25.924Z,18.60
2022-11-01T10:08:04.076Z,18.70
2022-11-01T10:11:29.352Z,18.84
2022-11-01T10:14:27.924Z,18.96
2022-11-01T10:17:17.301Z,18.95
2022-11-01T10:19:50.065Z,19.01
2022-11-01T10:22:29.760Z,19.09
2022-11-01T10:25:05.176Z,19.14
2022-11-01T10:28:03.810Z,19.16
2022-11-01T10:30:41.761Z,19.20
2022-11-01T10:33:43.595Z,19.24
2022-11-01T10:36:21.350Z,19.24
2022-11-01T10:41:52.816Z,19.34
2022-11-01T10:44:55.273Z,19.44
2022-11-01T10:47:24.865Z,19.49
2022-11-01T10:50:07.646Z,19.57
2022-11-01T10:52:51.959Z,19.55
2022-11-01T10:55:30.074Z,19.48
2022-11-01T10:58:06.731Z,19.44
2022-11-01T11:00:40.114Z,19.38
2022-11-01T11:03:21.055Z,19.42
2022-11-01T11:05:51.268Z,19.47
2022-11-01T11:08:24.347Z,19.61
2022-11-01T11:10:57.184Z,19.75
2022-11-01T11:13:26.814Z,19.96
2022-11-01T11:16:02.370Z,20.14
2022-11-01T11:18:36.666Z,20.27
2022-11-01T11:21:11.657Z,20.34
2022-11-01T11:23:44.484Z,20.42
2022-11-01T11:26:17.537Z,20.51
2022-11-01T11:28:51.042Z,20.52
2022-11-01T11:31:32.734Z,20.51
2022-11-01T11:34:18.615Z,20.41
2022-11-01T11:36:50.082Z,20.25
2022-11-01T11:39:36.759Z,20.13
2022-11-01T11:42:19.040Z,20.06
2022-11-01T11:44:53.869Z,20.00
2022-11-01T11:47:35.779Z,19.98
2022-11-01T11:50:30.565Z,20.00
2022-11-01T11:53:07.733Z,20.04
2022-11-01T11:55:57.877Z,20.09
2022-11-01T11:58:33.335Z,20.13
2022-11-01T12:01:05.684Z,20.14
2022-11-01T12:03:49.623Z,20.14
2022-11-01T12:06:24.161Z,20.17
2022-11-01T12:09:00.322Z,20.24
2022-11-01T12:11:45.312Z,20.32
2022-11-01T12:14:24.363Z,20.41
2022-11-01T12:16:52.658Z,20.43
2022-11-01T12:19:31.328Z,20.42
2022-11-01T12:22:03.880Z,20.41
2022-11-01T12:24:50.412Z,20.38
2022-11-01T12:27:23.361Z,20.37
2022-11-01T12:30:08.678Z,20.31
2022-11-01T12:32:49.454Z,20.26
2022-11-01T12:35:32.427Z,20.19
2022-11-01T12:38:31.942Z,20.17
2022-11-01T12:41:30.050Z,20.16
2022-11-01T12:44:16.764Z,20.15
2022-11-01T12:46:53.228Z,20.16
2022-11-01T12:49:52.466Z,20.16
2022-11-01T12:52:34.947Z,20.16
2022-11-01T12:55:21.178Z,20.13
2022-11-01T12:57:49.552Z,20.11
2022-11-01T13:00:21.223Z,20.08
2022-11-01T13:03:07.753Z,20.03
2022-11-01T13:06:06.410Z,20.04
2022-11-01T13:09:01.021Z,20.06
2022-11-01T13:11:48.219Z,20.10
2022-11-01T13:14:53.555Z,20.15
2022-11-01T13:17:41.321Z,20.22
2022-11-01T13:20:30.748Z,20.32
2022-11-01T13:23:08.571Z,20.39
2022-11-01T13:26:24.147Z,20.37
2022-11-01T13:29:01.455Z,20.31
2022-11-01T13:32:02.034Z,20.26
2022-11-01T13:34:43.267Z,20.22
2022-11-01T13:37:33.208Z,20.18
2022-11-01T13:40:13.621Z,20.15
2022-11-01T13:42:58.451Z,20.13
2022-11-01T13:46:09.824Z,20.11
2022-11-01T13:49:32.682Z,20.03
2022-11-01T13:52:19.402Z,19.93
2022-11-01T13:55:02.479Z,19.85
2022-11-01T13:57:31.601Z,19.82
2022-11-01T14:00:05.215Z,19.91
2022-11-01T14:02:59.037Z,20.14
2022-11-01T14:05:37.953Z,20.45
2022-11-01T14:08:12.742Z,20.80
2022-11-01T14:10:49.940Z,21.03
2022-11-01T14:13:32.236Z,21.15
2022-11-01T14:16:03.594Z,21.38
2022-11-01T14:19:02.668Z,21.66
2022-11-01T14:21:42.288Z,21.80
2022-11-01T14:24:32.196Z,21.72
2022-11-01T14:27:21.778Z,21.52
2022-11-01T14:29:51.788Z,21.27
2022-11-01T14:32:23.873Z,21.07
2022-11-01T14:35:06.187Z,20.90
2022-11-01T14:37:49.956Z,20.71
2022-11-01T14:40:33.338Z,20.49
2022-11-01T14:43:34.228Z,20.30
2022-11-01T14:46:15.732Z,20.09
2022-11-01T14:49:03.324Z,19.89
2022-11-01T14:51:52.692Z,19.71
2022-11-01T14:54:46.113Z,19.51
2022-11-01T14:57:27.263Z,19.33
2022-11-01T14:59:58.205Z,19.16
2022-11-01T15:02:28.307Z,19.04
2022-11-01T15:05:00.148Z,18.91
2022-11-01T15:07:36.934Z,18.78
2022-11-01T15:10:12.536Z,18.65
2022-11-01T15:12:54.026Z,18.52
2022-11-01T15:15:27.898Z,18.40
2022-11-01T15:18:20.886Z,18.27
2022-11-01T15:20:56.155Z,18.12
2022-11-01T15:23:37.180Z,17.98
2022-11-01T15:26:13.085Z,17.83
2022-11-01T15:28:47.805Z,17.69
2022-11-01T15:31:16.204Z,17.56
2022-11-01T15:34:19.956Z,17.44
2022-11-01T15:36:48.639Z,17.29
2022-11-01T15:39:22.978Z,17.16
2022-11-01T15:41:55.141Z,17.05
2022-11-01T15:44:26.900Z,16.95
2022-11-01T15:47:02.190Z,16.84
2022-11-01T15:49:43.136Z,16.76
2022-11-01T15:52:34.501Z,16.67
2022-11-01T15:55:25.942Z,16.58
2022-11-01T15:58:08.859Z,16.50
2022-11-01T16:00:44.430Z,16.44
2022-11-01T16:03:28.744Z,16.38
2022-11-01T16:06:06.593Z,16.31
2022-11-01T16:08:49.234Z,16.24
2022-11-01T16:11:23.918Z,16.16
2022-11-01T16:14:37.220Z,16.10
2022-11-01T16:17:23.486Z,16.01
2022-11-01T16:19:52.834Z,15.93
2022-11-01T16:22:46.463Z,15.87
2022-11-01T16:25:17.387Z,15.82
2022-11-01T16:27:55.271Z,15.77
2022-11-01T16:30:48.101Z,15.74
2022-11-01T16:33:46.543Z,15.71
2022-11-01T16:36:20.565Z,15.67
2022-11-01T16:38:53.872Z,15.63
2022-11-01T16:41:36.458Z,15.59
2022-11-01T16:44:17.305Z,15.55
2022-11-01T16:46:45.790Z,15.51
2022-11-01T16:49:13.929Z,15.47
2022-11-01T16:51:42.618Z,15.43
2022-11-01T16:54:12.143Z,15.39
2022-11-01T16:56:51.500Z,15.33
2022-11-01T16:59:35.716Z,15.29
2022-11-01T17:02:20.900Z,15.24
2022-11-01T17:04:54.102Z,15.19
2022-11-01T17:07:23.149Z,15.15
2022-11-01T17:09:51.405Z,15.11
2022-11-01T17:12:20.634Z,15.07
2022-11-01T17:14:48.877Z,15.04
2022-11-01T17:17:24.338Z,15.01
2022-11-01T17:19:59.987Z,14.97
2022-11-01T17:22:36.707Z,14.94
2022-11-01T17:25:06.451Z,14.89
2022-11-01T17:27:34.800Z,14.85
2022-11-01T17:30:03.513Z,14.81
2022-11-01T17:32:31.756Z,14.76
2022-11-01T17:34:59.994Z,14.71
2022-11-01T17:37:32.233Z,14.66
2022-11-01T17:40:01.228Z,14.62
2022-11-01T17:42:29.612Z,14.58
2022-11-01T17:45:18.027Z,14.56
2022-11-01T17:47:46.502Z,14.54
2022-11-01T17:50:16.605Z,14.52
2022-11-01T17:52:44.857Z,14.49
2022-11-01T17:55:14.383Z,14.46
2022-11-01T17:57:43.632Z,14.44
2022-11-01T18:00:12.571Z,14.42
2022-11-01T18:02:40.820Z,14.40
2022-11-01T18:05:09.458Z,14.39
2022-11-01T18:07:42.344Z,14.39
2022-11-01T18:10:40.752Z,14.38
2022-11-01T18:13:52.149Z,14.36
2022-11-01T18:16:56.875Z,14.36
2022-11-01T18:19:34.627Z,14.33
2022-11-01T18:22:19.829Z,14.31
2022-11-01T18:25:25.880Z,14.30
2022-11-01T18:27:58.249Z,14.29
2022-11-01T18:30:27.104Z,14.28
2022-11-01T18:33:11.553Z,14.28
2022-11-01T18:35:46.909Z,14.28
2022-11-01T18:38:42.565Z,14.28
2022-11-01T18:41:18.644Z,14.29
2022-11-01T18:43:46.914Z,14.30
2022-11-01T18:46:26.737Z,14.31
2022-11-01T18:49:00.684Z,14.32
2022-11-01T18:51:32.503Z,14.33
2022-11-01T18:54:09.755Z,14.32
2022-11-01T18:56:48.215Z,14.31
2022-11-01T18:59:27.423Z,14.30
2022-11-01T19:02:12.298Z,14.29
2022-11-01T19:04:43.147Z,14.28
2022-11-01T19:07:14.618Z,14.26
2022-11-01T19:09:53.499Z,14.25
2022-11-01T19:12:29.831Z,14.23
2022-11-01T19:15:36.757Z,14.21
2022-11-01T19:18:19.068Z,14.18
2022-11-01T19:20:53.115Z,14.16
2022-11-01T19:23:36.557Z,14.13
2022-11-01T19:26:27.114Z,14.12
2022-11-01T19:28:55.354Z,14.11
2022-11-01T19:31:33.287Z,14.10
2022-11-01T19:34:20.689Z,14.10
2022-11-01T19:36:50.103Z,14.10
2022-11-01T19:39:26.332Z,14.09
2022-11-01T19:42:00.444Z,14.09
2022-11-01T19:44:30.716Z,14.09
2022-11-01T19:47:36.252Z,14.07
2022-11-01T19:50:16.665Z,14.07
2022-11-01T19:52:47.450Z,14.06
2022-11-01T19:55:46.619Z,14.07
2022-11-01T19:58:48.937Z,14.09
2022-11-01T20:01:17.251Z,14.11
2022-11-01T20:03:48.055Z,14.12
2022-11-01T20:06:37.287Z,14.14
2022-11-01T20:09:19.317Z,14.16
2022-11-01T20:11:47.615Z,14.18
2022-11-01T20:14:15.927Z,14.19
2022-11-01T20:16:44.377Z,14.21
2022-11-01T20:19:16.381Z,14.23
2022-11-01T20:21:46.885Z,14.24
2022-11-01T20:24:16.011Z,14.27
2022-11-01T20:26:44.480Z,14.29
2022-11-01T20:29:12.751Z,14.32
2022-11-01T20:31:41.074Z,14.34
2022-11-01T20:34:09.424Z,14.32
2022-11-01T20:36:38.695Z,14.26
2022-11-01T20:39:09.165Z,14.19
2022-11-01T20:41:40.077Z,14.14
2022-11-01T20:44:08.274Z,14.10
2022-11-01T20:46:36.500Z,14.06
2022-11-01T20:49:04.964Z,14.00
2022-11-01T20:51:33.212Z,13.96
2022-11-01T20:54:01.471Z,13.90
2022-11-01T20:56:29.746Z,13.86
2022-11-01T20:58:58.311Z,13.82
2022-11-01T21:01:26.962Z,13.79
2022-11-01T21:03:55.362Z,13.76
2022-11-01T21:06:28.281Z,13.74
2022-11-01T21:08:57.269Z,13.69
2022-11-01T21:11:47.015Z,13.62
2022-11-01T21:14:18.939Z,13.52
2022-11-01T21:16:48.498Z,13.44
2022-11-01T21:19:22.497Z,13.37
2022-11-01T21:21:56.294Z,13.31
2022-11-01T21:24:36.346Z,13.25
2022-11-01T21:27:23.832Z,13.21
2022-11-01T21:30:00.660Z,13.18
2022-11-01T21:32:35.062Z,13.17
2022-11-01T21:35:38.041Z,13.15
2022-11-01T21:38:40.451Z,13.10
2022-11-01T21:41:39.052Z,13.06
2022-11-01T21:44:24.098Z,12.99
2022-11-01T21:46:58.498Z,12.92
2022-11-01T21:49:30.738Z,12.80
2022-11-01T21:52:05.522Z,12.72
2022-11-01T21:54:36.870Z,12.66
2022-11-01T21:57:09.179Z,12.62
2022-11-01T21:59:37.824Z,12.58
2022-11-01T22:02:09.901Z,12.55
2022-11-01T22:04:38.453Z,12.51
2022-11-01T22:07:08.714Z,12.47
2022-11-01T22:09:38.755Z,12.40
2022-11-01T22:12:07.855Z,12.33
2022-11-01T22:14:37.395Z,12.26
2022-11-01T22:17:05.690Z,12.23
2022-11-01T22:19:33.926Z,12.21
2022-11-01T22:22:02.212Z,12.17
2022-11-01T22:24:31.022Z,12.17
2022-11-01T22:26:59.261Z,12.15
2022-11-01T22:29:27.544Z,12.16
2022-11-01T22:31:55.790Z,12.15
2022-11-01T22:34:24.142Z,12.15
2022-11-01T22:36:52.404Z,12.15
2022-11-01T22:39:23.572Z,12.15
2022-11-01T22:41:52.277Z,12.15
2022-11-01T22:44:27.112Z,12.14
2022-11-01T22:46:59.495Z,12.14
2022-11-01T22:49:45.618Z,12.13
2022-11-01T22:52:30.061Z,12.12
2022-11-01T22:55:24.973Z,12.11
2022-11-01T22:58:03.889Z,12.10
2022-11-01T23:00:39.485Z,12.08
2022-11-01T23:03:23.529Z,12.05
2022-11-01T23:05:59.682Z,12.00
2022-11-01T23:08:35.375Z,11.95
2022-11-01T23:11:04.718Z,11.88
2022-11-01T23:13:55.816Z,11.81
2022-11-01T23:16:38.134Z,11.71
2022-11-01T23:19:13.203Z,11.62
2022-11-01T23:21:41.633Z,11.51
2022-11-01T23:24:09.969Z,11.43
2022-11-01T23:26:38.243Z,11.37
2022-11-01T23:29:06.490Z,11.35
2022-11-01T23:31:34.838Z,11.35
2022-11-01T23:34:03.205Z,11.36
2022-11-01T23:36:38.049Z,11.38
2022-11-01T23:39:11.952Z,11.39
2022-11-01T23:41:45.289Z,11.39
2022-11-01T23:44:33.673Z,11.38
2022-11-01T23:47:25.611Z,11.38
2022-11-01T23:50:05.100Z,11.38
2022-11-01T23:52:40.764Z,11.37
2022-11-01T23:55:31.767Z,11.38
2022-11-01T23:58:03.228Z,11.40
